createdAt,value
2022-09-20T00:03:06.457Z,1007.28
2022-09-20T00:08:49.900Z,1007.27
2022-09-20T00:14:33.274Z,1007.29
2022-09-20T00:20:16.698Z,1007.29
2022-09-20T00:26:01.797Z,1007.18
2022-09-20T00:31:45.125Z,1007.15
2022-09-20T00:37:28.346Z,1007.14
2022-09-20T00:43:14.126Z,1007.11
2022-09-20T00:49:00.022Z,1007.13
2022-09-20T00:54:43.647Z,1007.16
2022-09-20T01:00:27.827Z,1007.18
2022-09-20T01:06:13.695Z,1007.17
2022-09-20T01:11:57.926Z,1007.12
2022-09-20T01:17:43.427Z,1007.08
2022-09-20T01:23:32.052Z,1007.09
2022-09-20T01:29:22.411Z,1007.17
2022-09-20T01:35:07.486Z,1007.18
2022-09-20T01:40:56.030Z,1007.18
2022-09-20T01:46:42.033Z,1007.19
2022-09-20T01:52:51.706Z,1007.19
2022-09-20T01:59:01.809Z,1007.25
2022-09-20T02:04:59.158Z,1007.2
2022-09-20T02:10:57.249Z,1007.18
2022-09-20T02:16:51.189Z,1007.18
2022-09-20T02:22:41.153Z,1007.19
2022-09-20T02:28:31.150Z,1007.19
2022-09-20T02:34:38.051Z,1007.2
2022-09-20T02:40:27.498Z,1007.18
2022-09-20T02:46:14.637Z,1007.15
2022-09-20T02:52:01.096Z,1007.16
2022-09-20T02:57:51.103Z,1007.18
2022-09-20T03:03:38.894Z,1007.14
2022-09-20T03:09:26.469Z,1007.13
2022-09-20T03:15:16.767Z,1007.09
2022-09-20T03:21:04.978Z,1007.11
2022-09-20T03:26:53.378Z,1007.09
2022-09-20T03:32:46.234Z,1007.11
2022-09-20T03:38:38.082Z,1007.13
2022-09-20T03:44:34.718Z,1007.22
2022-09-20T03:50:32.031Z,1007.2
2022-09-20T03:56:35.379Z,1007.18
2022-09-20T04:02:30.367Z,1007.19
2022-09-20T04:08:18.462Z,1007.18
2022-09-20T04:14:12.455Z,1007.28
2022-09-20T04:20:00.385Z,1007.25
2022-09-20T04:25:47.097Z,1007.22
2022-09-20T04:31:37.199Z,1007.2
2022-09-20T04:37:25.335Z,1007.15
2022-09-20T04:43:17.796Z,1007.18
2022-09-20T04:49:26.237Z,1007.25
2022-09-20T04:55:20.705Z,1007.27
2022-09-20T05:01:15.796Z,1007.36
2022-09-20T05:07:10.784Z,1007.31
2022-09-20T05:13:05.624Z,1007.33
2022-09-20T05:19:02.977Z,1007.33
2022-09-20T05:24:54.358Z,1007.35
2022-09-20T05:30:41.818Z,1007.45
2022-09-20T05:36:35.067Z,1007.42
2022-09-20T05:42:21.695Z,1007.48
2022-09-20T05:48:09.992Z,1007.5
2022-09-20T05:54:01.130Z,1007.52
2022-09-20T05:59:51.365Z,1007.52
2022-09-20T06:05:42.091Z,1007.55
2022-09-20T06:11:32.922Z,1007.66
2022-09-20T06:17:23.171Z,1007.67
2022-09-20T06:23:06.676Z,1007.76
2022-09-20T06:28:58.202Z,1007.78
2022-09-20T06:34:41.642Z,1007.79
2022-09-20T06:40:32.034Z,1007.84
2022-09-20T06:46:15.435Z,1007.84
2022-09-20T06:51:58.576Z,1007.85
2022-09-20T06:57:41.774Z,1007.88
2022-09-20T07:03:25.070Z,1007.93
2022-09-20T07:09:08.362Z,1007.94
2022-09-20T07:14:51.734Z,1007.92
2022-09-20T07:20:35.103Z,1007.92
2022-09-20T07:26:21.644Z,1007.92
2022-09-20T07:32:05.176Z,1007.92
2022-09-20T07:37:48.562Z,1007.88
2022-09-20T07:43:32.239Z,1007.91
2022-09-20T07:49:16.172Z,1007.95
2022-09-20T07:54:59.840Z,1008.01
2022-09-20T08:00:43.254Z,1008.06
2022-09-20T08:06:26.349Z,1008.13
2022-09-20T08:18:13.971Z,1008.14
2022-09-20T08:23:57.781Z,1008.19
2022-09-20T08:29:40.891Z,1008.21
2022-09-20T08:35:24.200Z,1008.27
2022-09-20T08:41:11.561Z,1008.23
2022-09-20T08:46:59.638Z,1008.22
2022-09-20T08:52:45.636Z,1008.28
2022-09-20T08:58:29.131Z,1008.29
2022-09-20T09:04:16.087Z,1008.24
2022-09-20T09:09:59.336Z,1008.31
2022-09-20T09:15:44.234Z,1008.28
2022-09-20T09:21:29.128Z,1008.31
2022-09-20T09:27:15.106Z,1008.28
2022-09-20T09:33:03.859Z,1008.31
2022-09-20T09:38:47.220Z,1008.27
2022-09-20T09:44:30.950Z,1008.28
2022-09-20T09:50:19.154Z,1008.32
2022-09-20T09:56:15.332Z,1008.36
2022-09-20T10:02:02.874Z,1008.35
2022-09-20T10:07:49.761Z,1008.25
2022-09-20T10:13:41.386Z,1008.25
2022-09-20T10:19:29.615Z,1008.19
2022-09-20T10:25:18.538Z,1008.16
2022-09-20T10:31:07.812Z,1008.12
2022-09-20T10:36:53.751Z,1008.2
2022-09-20T10:42:41.591Z,1008.11
2022-09-20T10:48:29.463Z,1008.11
2022-09-20T10:54:16.998Z,1008.09
2022-09-20T11:00:05.922Z,1008.1
2022-09-20T11:05:56.067Z,1008.1
2022-09-20T11:11:42.387Z,1008.16
2022-09-20T11:17:28.042Z,1008.29
2022-09-20T11:23:15.523Z,1008.37
2022-09-20T11:29:02.601Z,1008.34
2022-09-20T11:34:50.280Z,1008.31
2022-09-20T11:40:35.867Z,1008.36
2022-09-20T11:46:22.463Z,1008.43
2022-09-20T11:52:32.889Z,1008.38
2022-09-20T11:58:17.081Z,1008.38
2022-09-20T12:04:31.574Z,1008.34
2022-09-20T12:10:07.512Z,1008.3
2022-09-20T12:15:56.183Z,1008.25
2022-09-20T12:21:50.667Z,1008.23
2022-09-20T12:27:44.773Z,1008.26
2022-09-20T12:33:33.014Z,1008.32
2022-09-20T12:39:29.846Z,1008.27
2022-09-20T12:45:18.554Z,1008.28
2022-09-20T12:51:10.891Z,1008.26
2022-09-20T12:56:55.297Z,1008.28
2022-09-20T13:02:49.972Z,1008.31
2022-09-20T13:08:35.788Z,1008.31
2022-09-20T13:14:21.040Z,1008.31
2022-09-20T13:20:04.465Z,1008.29
2022-09-20T13:25:49.138Z,1008.3
2022-09-20T13:31:33.632Z,1008.18
2022-09-20T13:37:19.798Z,1008.19
2022-09-20T13:43:23.864Z,1008.08
2022-09-20T13:49:15.317Z,1008.11
2022-09-20T13:54:58.661Z,1008.15
2022-09-20T14:00:46.049Z,1008.14
2022-09-20T14:06:29.816Z,1008.1
2022-09-20T14:12:13.408Z,1008.08
2022-09-20T14:17:57.117Z,1008.1
2022-09-20T14:23:52.115Z,1008.1
2022-09-20T14:29:41.170Z,1008.11
2022-09-20T14:35:25.285Z,1008.09
2022-09-20T14:41:08.779Z,1008.04
2022-09-20T14:46:52.877Z,1008.03
2022-09-20T14:52:37.650Z,1008.03
2022-09-20T14:58:21.014Z,1007.99
2022-09-20T15:04:06.885Z,1007.99
2022-09-20T15:09:50.218Z,1007.94
2022-09-20T15:15:34.023Z,1007.95
2022-09-20T15:21:18.131Z,1008.01
2022-09-20T15:27:01.339Z,1008
2022-09-20T15:32:45.453Z,1008
2022-09-20T15:38:28.794Z,1007.95
2022-09-20T15:44:12.129Z,1007.95
2022-09-20T15:49:55.373Z,1007.93
2022-09-20T15:55:40.759Z,1007.93
2022-09-20T16:01:24.142Z,1007.98
2022-09-20T16:07:07.952Z,1007.99
2022-09-20T16:12:50.982Z,1008.05
2022-09-20T16:18:36.082Z,1008.04
2022-09-20T16:24:19.515Z,1008.12
2022-09-20T16:30:03.904Z,1008.11
2022-09-20T16:35:47.126Z,1008.11
2022-09-20T16:41:30.566Z,1008.17
2022-09-20T16:47:15.268Z,1008.17
2022-09-20T16:52:59.587Z,1008.15
2022-09-20T16:58:43.257Z,1008.15
2022-09-20T17:04:27.131Z,1008.19
2022-09-20T17:10:11.012Z,1008.16
2022-09-20T17:15:59.354Z,1008.19
2022-09-20T17:21:44.032Z,1008.22
2022-09-20T17:27:27.298Z,1008.29
2022-09-20T17:33:12.401Z,1008.29
2022-09-20T17:39:04.573Z,1008.37
2022-09-20T17:44:47.960Z,1008.46
2022-09-20T17:50:31.215Z,1008.54
2022-09-20T17:56:14.849Z,1008.52
2022-09-20T18:01:58.017Z,1008.61
2022-09-20T18:07:41.224Z,1008.62
2022-09-20T18:13:24.982Z,1008.6
2022-09-20T18:19:09.558Z,1008.63
2022-09-20T18:24:52.683Z,1008.67
2022-09-20T18:30:37.506Z,1008.83
2022-09-20T18:36:22.329Z,1008.82
2022-09-20T18:42:06.665Z,1008.83
2022-09-20T18:47:50.818Z,1008.92
2022-09-20T18:53:36.961Z,1008.92
2022-09-20T18:59:21.893Z,1009.02
2022-09-20T19:05:11.631Z,1009.06
2022-09-20T19:11:00.299Z,1009.15
2022-09-20T19:16:46.820Z,1009.2
2022-09-20T19:22:35.378Z,1009.22
2022-09-20T19:28:22.048Z,1009.25
2022-09-20T19:34:12.312Z,1009.28
2022-09-20T19:40:04.476Z,1009.31
2022-09-20T19:45:51.667Z,1009.38
2022-09-20T19:51:37.383Z,1009.43
2022-09-20T19:57:23.683Z,1009.5
2022-09-20T20:03:08.990Z,1009.47
2022-09-20T20:08:56.460Z,1009.49
2022-09-20T20:14:46.490Z,1009.52
2022-09-20T20:20:36.711Z,1009.55
2022-09-20T20:26:22.376Z,1009.52
2022-09-20T20:32:05.813Z,1009.55
2022-09-20T20:37:49.026Z,1009.64
2022-09-20T20:43:33.855Z,1009.64
2022-09-20T20:49:17.199Z,1009.67
2022-09-20T20:55:00.356Z,1009.7
2022-09-20T21:00:44.546Z,1009.8
2022-09-20T21:06:28.827Z,1009.82
2022-09-20T21:12:12.148Z,1009.77
2022-09-20T21:17:55.518Z,1009.79
2022-09-20T21:23:38.590Z,1009.77
2022-09-20T21:29:21.789Z,1009.79
2022-09-20T21:35:05.183Z,1009.79
2022-09-20T21:40:48.306Z,1009.81
2022-09-20T21:46:32.387Z,1009.88
2022-09-20T21:52:15.733Z,1009.85
2022-09-20T21:57:59.017Z,1009.85
2022-09-20T22:03:43.111Z,1009.86
2022-09-20T22:09:26.389Z,1009.86
2022-09-20T22:15:10.285Z,1009.86
2022-09-20T22:20:58.361Z,1009.82
2022-09-20T22:26:42.627Z,1009.84
2022-09-20T22:32:25.851Z,1009.85
2022-09-20T22:38:09.139Z,1009.88
2022-09-20T22:43:52.394Z,1009.85
2022-09-20T22:49:35.664Z,1009.81
2022-09-20T22:55:19.015Z,1009.77
2022-09-20T23:01:07.939Z,1009.82
2022-09-20T23:06:52.862Z,1009.87
2022-09-20T23:12:35.966Z,1009.86
2022-09-20T23:18:19.349Z,1009.83
2022-09-20T23:24:03.260Z,1009.8
2022-09-20T23:29:46.763Z,1009.74
2022-09-20T23:35:29.982Z,1009.77
2022-09-20T23:41:14.042Z,1009.79
2022-09-20T23:46:57.343Z,1009.77
2022-09-20T23:52:40.550Z,1009.78
2022-09-20T23:58:23.658Z,1009.75
